Time;durP1;ratioP1;P1;durP2;ratioP2;P2;SDS_P1;SDS_P2;PMS_P1;PMS_P2;Temp;Humidity;BMP_temperature;BMP_pressure;BME280_temperature;BME280_humidity;BME280_pressure;Samples;Min_cycle;Max_cycle;Signal;HPM_P1;HPM_P2
2022/11/01 00:02:07;;;;;;;15.60;5.97;;;;;;;15.07;99.08;100776.63;6096172;23;20048;-53
2022/11/01 00:04:34;;;;;;;18.65;5.90;;;;;;;15.08;99.01;100772.75;6096191;23;20019;-53
2022/11/01 00:07:02;;;;;;;15.10;5.97;;;;;;;15.08;99.40;100765.38;6096157;23;20115;-52
2022/11/01 00:09:30;;;;;;;14.80;6.10;;;;;;;15.08;99.49;100767.28;6096820;23;20018;-53
2022/11/01 00:11:58;;;;;;;15.63;5.40;;;;;;;15.09;99.67;100752.47;6096971;23;20352;-53
2022/11/01 00:14:26;;;;;;;16.80;5.97;;;;;;;15.10;100.00;100751.31;6095836;23;20356;-51
2022/11/01 00:16:53;;;;;;;14.27;5.80;;;;;;;15.11;100.00;100744.75;6096504;23;20026;-53
2022/11/01 00:19:21;;;;;;;15.55;6.10;;;;;;;15.11;100.00;100744.75;6096876;23;20026;-50
2022/11/01 00:21:49;;;;;;;14.73;5.65;;;;;;;15.13;100.00;100753.50;6095826;23;20069;-49
2022/11/01 00:24:16;;;;;;;14.38;5.63;;;;;;;15.14;100.00;100749.63;6095844;23;20046;-49
2022/11/01 00:26:44;;;;;;;15.90;6.35;;;;;;;15.14;100.00;100744.13;6097597;23;20022;-48
2022/11/01 00:29:12;;;;;;;14.80;6.05;;;;;;;15.13;100.00;100734.28;6096618;23;20332;-49
2022/11/01 00:31:40;;;;;;;16.27;5.72;;;;;;;15.12;100.00;100740.88;6096868;23;20042;-52
2022/11/01 00:34:07;;;;;;;20.63;6.32;;;;;;;15.13;100.00;100731.53;6097636;23;20502;-50
2022/11/01 00:36:35;;;;;;;12.30;5.80;;;;;;;15.13;100.00;100731.53;6097843;23;20051;-51
2022/11/01 00:39:03;;;;;;;15.23;5.65;;;;;;;15.14;100.00;100733.16;6097359;23;20038;-50
2022/11/01 00:41:31;;;;;;;17.92;5.43;;;;;;;15.14;100.00;100722.19;6095789;23;20018;-50
2022/11/01 00:43:59;;;;;;;14.77;5.63;;;;;;;15.14;100.00;100722.19;6097773;23;20014;-51
2022/11/01 00:46:27;;;;;;;15.95;5.68;;;;;;;15.14;100.00;100722.19;6096357;23;20026;-50
2022/11/01 00:48:54;;;;;;;15.43;5.43;;;;;;;15.14;100.00;100719.44;6097711;23;20023;-48
2022/11/01 00:51:22;;;;;;;12.25;5.30;;;;;;;15.14;100.00;100722.19;6096741;23;20027;-48
2022/11/01 00:53:50;;;;;;;17.38;5.43;;;;;;;15.15;100.00;100725.72;6095739;23;20026;-49
2022/11/01 00:56:17;;;;;;;15.32;5.90;;;;;;;15.15;100.00;100723.78;6097391;23;20018;-50
2022/11/01 00:58:45;;;;;;;15.85;5.68;;;;;;;15.14;100.00;100724.91;6097492;23;20022;-51
2022/11/01 01:01:13;;;;;;;13.13;5.32;;;;;;;15.13;100.00;100720.56;6097357;23;20316;-50
2022/11/01 01:03:40;;;;;;;14.18;6.07;;;;;;;15.13;100.00;100717.81;6098215;23;20089;-50
2022/11/01 01:06:08;;;;;;;14.27;5.60;;;;;;;15.12;100.00;100706.00;6098008;23;20026;-50
2022/11/01 01:08:35;;;;;;;13.90;5.50;;;;;;;15.12;100.00;100705.19;6097486;23;20069;-51
2022/11/01 01:11:03;;;;;;;15.60;5.70;;;;;;;15.12;100.00;100713.44;6097694;23;20022;-52
2022/11/01 01:13:31;;;;;;;16.95;6.07;;;;;;;15.12;100.00;100703.25;6099881;23;20022;-51
2022/11/01 01:15:58;;;;;;;16.85;5.78;;;;;;;15.13;100.00;100698.59;6099624;23;20018;-50
2022/11/01 01:18:26;;;;;;;16.92;5.10;;;;;;;15.12;100.00;100691.47;6098914;23;20070;-52
2022/11/01 01:21:01;;;;;;;8.80;4.65;;;;;;;15.14;100.00;100697.47;6100774;23;20355;-51
2022/11/01 01:23:28;;;;;;;12.15;4.90;;;;;;;15.13;100.00;100702.16;6100486;23;20073;-53
2022/11/01 01:25:56;;;;;;;11.35;4.90;;;;;;;15.13;100.00;100684.88;6099446;23;20023;-54
2022/11/01 01:28:24;;;;;;;19.45;5.65;;;;;;;15.16;100.00;100678.78;6098476;23;20085;-49
2022/11/01 01:30:51;;;;;;;13.52;4.60;;;;;;;15.19;100.00;100683.66;6100010;23;20028;-50
2022/11/01 01:33:19;;;;;;;12.63;4.70;;;;;;;15.23;100.00;100681.94;6099204;23;20027;-55
2022/11/01 01:35:46;;;;;;;15.45;4.75;;;;;;;15.24;100.00;100686.31;6100256;23;20478;-52
2022/11/01 01:38:14;;;;;;;11.82;4.38;;;;;;;15.28;100.00;100690.09;6098346;23;20022;-52
2022/11/01 01:40:42;;;;;;;15.23;5.00;;;;;;;15.32;100.00;100685.63;6097467;23;20034;-53
2022/11/01 01:43:11;;;;;;;11.27;4.63;;;;;;;15.38;100.00;100693.75;6098728;23;20503;-53
2022/11/01 01:45:41;;;;;;;10.68;4.00;;;;;;;15.39;100.00;100696.19;6099022;23;20026;-51
2022/11/01 01:48:10;;;;;;;17.35;4.63;;;;;;;15.42;100.00;100683.81;6075016;23;20018;-54
2022/11/01 01:50:58;;;;;;;12.52;4.60;;;;;;;15.44;100.00;100684.28;6099436;23;20046;-52
2022/11/01 01:53:28;;;;;;;10.15;4.15;;;;;;;15.47;100.00;100695.50;6098757;23;20106;-55
2022/11/01 01:56:21;;;;;;;10.93;4.85;;;;;;;15.50;100.00;100685.84;6099914;23;20022;-54
2022/11/01 01:59:07;;;;;;;8.98;4.20;;;;;;;15.51;100.00;100691.03;6096434;23;20015;-54
2022/11/01 02:01:38;;;;;;;9.18;4.13;;;;;;;15.52;100.00;100678.13;6074578;23;20026;-53
2022/11/01 02:04:28;;;;;;;9.70;4.20;;;;;;;15.50;100.00;100681.16;6100255;23;20026;-51
2022/11/01 02:06:57;;;;;;;9.73;4.15;;;;;;;15.53;100.00;100674.22;6095961;23;20019;-56
2022/11/01 02:09:25;;;;;;;10.85;4.70;;;;;;;15.56;100.00;100679.09;6095476;23;20030;-53
2022/11/01 02:11:58;;;;;;;12.38;5.03;;;;;;;15.59;100.00;100675.78;6096062;23;20385;-51
2022/11/01 02:14:25;;;;;;;9.30;4.25;;;;;;;15.63;100.00;100675.97;6095509;23;20094;-51
2022/11/01 02:16:59;;;;;;;10.40;4.07;;;;;;;15.64;100.00;100674.84;6097481;23;20077;-52
2022/11/01 02:19:51;;;;;;;10.30;4.30;;;;;;;15.69;100.00;100674.75;6095399;23;20018;-53
2022/11/01 02:22:45;;;;;;;9.50;4.22;;;;;;;15.68;100.00;100676.69;6095953;23;20014;-49
2022/11/01 02:25:19;;;;;;;14.57;4.32;;;;;;;15.70;100.00;100679.16;6046024;23;20451;-50
2022/11/01 02:28:05;;;;;;;9.85;4.38;;;;;;;15.70;100.00;100682.69;6097165;23;20015;-50
2022/11/01 02:31:05;;;;;;;;;;;;;;;15.70;100.00;100692.88;6096869;23;20077;-51
2022/11/01 02:34:00;;;;;;;10.00;3.80;;;;;;;15.71;100.00;100683.53;6079421;23;19917;-51
2022/11/01 02:36:40;;;;;;;11.60;4.07;;;;;;;15.72;100.00;100693.38;6096399;23;20070;-50
2022/11/01 02:39:16;;;;;;;11.73;4.20;;;;;;;15.73;100.00;100681.31;6097008;23;20014;-49
2022/11/01 02:41:53;;;;;;;14.98;4.00;;;;;;;15.74;100.00;100675.47;6098230;23;20018;-49
2022/11/01 02:44:34;;;;;;;10.48;3.83;;;;;;;15.77;100.00;100685.84;6096927;23;20022;-51
2022/11/01 02:47:02;;;;;;;10.50;4.18;;;;;;;15.77;100.00;100688.59;6049106;23;20022;-49
2022/11/01 02:49:42;;;;;;;11.50;4.00;;;;;;;15.82;100.00;100686.88;6098433;23;20018;-49
2022/11/01 02:52:12;;;;;;;9.10;3.63;;;;;;;15.81;100.00;100690.75;6096819;23;20026;-52
2022/11/01 02:54:43;;;;;;;8.43;3.80;;;;;;;15.81;100.00;100690.75;6098600;23;20019;-51
2022/11/01 02:57:17;;;;;;;12.60;3.85;;;;;;;15.78;100.00;100686.69;6097939;23;20022;-51
2022/11/01 02:59:46;;;;;;;11.25;3.97;;;;;;;15.77;100.00;100699.59;6097654;23;20451;-50
2022/11/01 03:02:38;;;;;;;9.40;3.60;;;;;;;15.76;100.00;100689.72;6096872;23;20066;-52
2022/11/01 03:05:20;;;;;;;8.57;3.42;;;;;;;15.76;100.00;100689.72;6098033;23;20025;-53
2022/11/01 03:07:51;;;;;;;10.00;3.90;;;;;;;15.79;100.00;100688.31;6073086;23;20031;-52
2022/11/01 03:10:24;;;;;;;8.57;3.72;;;;;;;15.76;100.00;100705.41;6097141;23;20443;-51
2022/11/01 03:13:18;;;;;;;9.82;4.22;;;;;;;15.77;100.00;100698.78;6072673;23;20026;-51
2022/11/01 03:15:53;;;;;;;12.20;4.25;;;;;;;15.75;100.00;100704.59;6096943;23;20022;-53
2022/11/01 03:18:31;;;;;;;10.13;3.85;;;;;;;15.74;100.00;100705.69;6098246;23;20455;-52
2022/11/01 03:21:16;;;;;;;10.30;3.80;;;;;;;15.76;100.00;100713.66;6096630;23;20123;-52
2022/11/01 03:23:56;;;;;;;9.70;4.10;;;;;;;15.75;100.00;100712.84;6097477;23;20018;-51
2022/11/01 03:26:27;;;;;;;11.75;4.10;;;;;;;15.80;100.00;100716.59;6072913;23;20014;-51
2022/11/01 03:28:59;;;;;;;8.32;3.42;;;;;;;15.81;100.00;100718.22;6096483;23;20018;-48
2022/11/01 03:31:31;;;;;;;10.73;3.58;;;;;;;15.81;100.00;100715.47;6096225;23;20030;-49
2022/11/01 03:34:03;;;;;;;11.10;4.35;;;;;;;15.80;100.00;100724.81;6096286;23;20074;-51
2022/11/01 03:36:45;;;;;;;11.80;3.80;;;;;;;15.82;100.00;100730.84;6096810;23;20073;-48
2022/11/01 03:39:27;;;;;;;7.85;3.28;;;;;;;15.82;100.00;100733.56;6098033;23;20029;-50
2022/11/01 03:41:58;;;;;;;9.88;3.38;;;;;;;15.79;100.00;100726.75;6099290;23;20082;-49
2022/11/01 03:44:29;;;;;;;13.60;3.33;;;;;;;15.79;100.00;100728.69;6099724;23;20455;-52
2022/11/01 03:46:56;;;;;;;10.38;3.47;;;;;;;15.79;100.00;100742.44;6099716;23;20073;-53
2022/11/01 03:49:24;;;;;;;8.15;3.00;;;;;;;15.77;100.00;100745.47;6104574;23;20070;-50
2022/11/01 03:51:51;;;;;;;8.43;3.85;;;;;;;15.77;100.00;100751.78;6099246;23;20090;-53
2022/11/01 03:54:19;;;;;;;10.45;3.70;;;;;;;15.76;100.00;100769.41;6098256;23;20018;-48
2022/11/01 03:56:47;;;;;;;9.15;3.47;;;;;;;15.74;100.00;100768.88;6096157;23;20432;-49
2022/11/01 03:59:14;;;;;;;7.00;2.90;;;;;;;15.73;100.00;100767.25;6094939;23;20026;-50
2022/11/01 04:01:42;;;;;;;7.75;3.20;;;;;;;15.70;100.00;100778.84;6095904;23;20030;-49
2022/11/01 04:04:10;;;;;;;7.75;3.05;;;;;;;15.69;100.00;100784.63;6096879;23;20078;-53
2022/11/01 04:06:37;;;;;;;7.18;2.78;;;;;;;15.68;100.00;100789.31;6102272;23;20026;-51
2022/11/01 04:09:05;;;;;;;5.50;2.33;;;;;;;15.66;95.68;100805.28;6102968;23;20018;-51
2022/11/01 04:11:33;;;;;;;5.45;2.40;;;;;;;15.64;93.33;100802.00;6102459;23;20023;-51
2022/11/01 04:22:18;;;;;;;3.38;2.25;;;;;;;15.61;86.63;100840.25;6097422;23;20473;-49
2022/11/01 04:24:50;;;;;;;6.88;1.83;;;;;;;15.53;83.19;100839.81;6096891;23;20020;-48
2022/11/01 04:27:18;;;;;;;9.05;2.10;;;;;;;15.48;81.06;100863.81;6096470;23;20074;-50
2022/11/01 04:29:46;;;;;;;3.45;1.70;;;;;;;15.48;80.57;100869.31;6096980;23;20050;-52
2022/11/01 04:32:13;;;;;;;4.95;1.98;;;;;;;15.44;79.95;100862.78;6097406;23;20022;-51
2022/11/01 04:34:41;;;;;;;4.90;1.75;;;;;;;15.41;80.12;100868.88;6096794;23;20328;-50
2022/11/01 04:37:09;;;;;;;3.22;1.83;;;;;;;15.41;79.17;100879.84;6096879;23;20472;-52
2022/11/01 04:39:37;;;;;;;5.38;1.58;;;;;;;15.41;80.63;100880.66;6097172;23;20320;-49
2022/11/01 04:42:04;;;;;;;3.70;1.50;;;;;;;15.39;81.56;100887.56;6096350;23;20065;-50
2022/11/01 04:44:32;;;;;;;4.38;1.50;;;;;;;15.35;81.30;100887.38;6097196;23;20081;-52
2022/11/01 04:46:59;;;;;;;4.57;1.58;;;;;;;15.33;81.13;100893.13;6097081;23;20022;-53
2022/11/01 04:49:27;;;;;;;7.03;1.70;;;;;;;15.34;82.00;100908.50;6097062;23;20018;-50
2022/11/01 04:51:55;;;;;;;3.88;1.75;;;;;;;15.34;82.25;100905.78;6097665;23;20022;-51
2022/11/01 04:54:22;;;;;;;2.92;1.48;;;;;;;15.33;82.32;100906.06;6096178;23;20097;-51
2022/11/01 04:56:50;;;;;;;4.03;1.83;;;;;;;15.28;82.13;100919.88;6096447;23;20018;-53
2022/11/01 04:59:17;;;;;;;5.18;2.13;;;;;;;15.26;80.79;100922.09;6097074;23;20022;-51
2022/11/01 05:01:45;;;;;;;5.75;1.80;;;;;;;15.31;82.97;100928.31;6096702;23;20027;-51
2022/11/01 05:04:13;;;;;;;4.78;1.95;;;;;;;15.27;81.40;100935.53;6097474;23;20026;-53
2022/11/01 05:06:40;;;;;;;6.25;1.80;;;;;;;15.20;80.95;100951.53;6096935;23;20130;-50
2022/11/01 05:09:08;;;;;;;3.55;1.65;;;;;;;15.23;84.25;100959.19;6097234;23;20022;-52
2022/11/01 05:11:35;;;;;;;5.07;1.65;;;;;;;15.19;82.25;100960.88;6095621;23;20030;-52
2022/11/01 05:14:03;;;;;;;5.30;2.30;;;;;;;15.23;86.97;100963.88;6095536;23;20026;-54
2022/11/01 05:16:31;;;;;;;3.03;1.80;;;;;;;15.20;83.68;100972.66;6096494;23;20011;-50
2022/11/01 05:18:58;;;;;;;5.22;2.10;;;;;;;15.19;82.26;100982.03;6097050;23;20026;-51
2022/11/01 05:21:26;;;;;;;8.75;1.77;;;;;;;15.17;82.98;100982.31;6096873;23;20029;-54
2022/11/01 05:23:53;;;;;;;5.65;1.90;;;;;;;15.13;80.37;100981.28;6097785;23;20380;-51
2022/11/01 05:26:21;;;;;;;8.23;1.90;;;;;;;15.08;78.20;100986.81;6096846;23;20015;-51
2022/11/01 05:28:48;;;;;;;4.50;1.80;;;;;;;15.05;78.92;100993.72;6094800;23;20347;-52
2022/11/01 05:31:16;;;;;;;5.75;2.00;;;;;;;15.04;78.69;100991.28;6096074;23;20065;-50
2022/11/01 05:33:44;;;;;;;8.00;1.85;;;;;;;14.99;75.76;101000.38;6095964;23;20392;-49
2022/11/01 05:36:11;;;;;;;6.05;2.05;;;;;;;15.02;76.46;101004.47;6096912;23;20399;-52
2022/11/01 05:38:39;;;;;;;3.63;1.73;;;;;;;15.01;78.99;100997.34;6096721;23;20014;-51
2022/11/01 05:41:06;;;;;;;7.47;2.10;;;;;;;15.00;80.05;101003.94;6096090;23;20089;-51
2022/11/01 05:43:34;;;;;;;6.18;1.73;;;;;;;14.94;76.66;100996.91;6071203;23;20018;-54
2022/11/01 05:46:06;;;;;;;5.68;1.67;;;;;;;14.94;77.40;101013.38;6096777;23;20439;-52
2022/11/01 05:48:34;;;;;;;4.45;1.70;;;;;;;14.88;76.95;101005.16;6095148;23;20022;-50
2022/11/01 05:51:01;;;;;;;6.05;1.92;;;;;;;14.87;80.07;101009.03;6095321;23;20022;-53
2022/11/01 05:53:29;;;;;;;7.68;2.22;;;;;;;14.87;77.32;101013.72;6096058;23;20022;-54
2022/11/01 05:55:57;;;;;;;5.38;2.05;;;;;;;14.86;80.31;101012.91;6094588;23;20383;-52
2022/11/01 05:58:24;;;;;;;4.10;1.90;;;;;;;14.87;80.59;101014.53;6096163;23;20026;-50
2022/11/01 06:01:07;;;;;;;3.90;1.70;;;;;;;14.84;81.41;101026.09;6096550;23;20041;-49
2022/11/01 06:03:35;;;;;;;4.15;1.75;;;;;;;14.80;80.15;101027.75;6096194;23;20423;-51
2022/11/01 06:06:03;;;;;;;3.65;1.50;;;;;;;14.79;81.05;101030.78;6095105;23;20090;-50
2022/11/01 06:08:31;;;;;;;4.05;1.83;;;;;;;14.78;81.76;101032.72;6095054;23;20026;-52
2022/11/01 06:11:05;;;;;;;6.22;2.30;;;;;;;14.81;83.54;101042.28;6098252;23;20018;-52
2022/11/01 06:13:33;;;;;;;5.30;2.22;;;;;;;14.78;82.56;101045.63;6098768;23;20081;-51
2022/11/01 06:16:03;;;;;;;5.40;1.88;;;;;;;14.83;85.61;101040.91;6097923;23;20101;-50
2022/11/01 06:18:30;;;;;;;3.67;1.75;;;;;;;14.76;80.57;101039.59;6098413;23;20018;-52
2022/11/01 06:20:58;;;;;;;5.38;1.90;;;;;;;14.69;78.01;101059.16;6098246;23;20530;-48
2022/11/01 06:23:26;;;;;;;10.57;2.20;;;;;;;14.70;78.84;101063.53;6098478;23;20069;-51
2022/11/01 06:26:01;;;;;;;7.78;1.98;;;;;;;14.90;86.41;101074.28;6096544;23;20085;-49
2022/11/01 06:28:28;;;;;;;4.88;2.13;;;;;;;14.98;87.04;101069.28;6098598;23;20033;-51
2022/11/01 06:31:01;;;;;;;10.00;2.53;;;;;;;14.94;87.57;101071.78;6072897;23;20025;-50
2022/11/01 06:33:29;;;;;;;5.38;2.10;;;;;;;14.90;90.64;101077.03;6097074;23;20026;-55
2022/11/01 06:35:57;;;;;;;12.27;2.78;;;;;;;14.94;85.84;101076.47;6097982;23;20022;-50
2022/11/01 06:38:25;;;;;;;9.68;2.28;;;;;;;14.86;85.03;101089.72;6098577;23;20081;-50
2022/11/01 06:40:53;;;;;;;5.22;1.75;;;;;;;14.96;93.17;101087.94;6097231;23;20534;-48
2022/11/01 06:43:21;;;;;;;8.77;2.13;;;;;;;15.05;92.11;101080.72;6093512;23;20081;-49
2022/11/01 06:45:48;;;;;;;7.75;2.58;;;;;;;15.07;95.79;101084.00;6069332;23;20089;-53
2022/11/01 06:48:16;;;;;;;4.07;1.80;;;;;;;15.12;93.20;101092.16;6092532;23;20018;-52
2022/11/01 06:50:44;;;;;;;7.25;2.50;;;;;;;15.12;89.67;101098.47;6094482;23;20026;-49
2022/11/01 06:53:11;;;;;;;8.93;2.80;;;;;;;15.10;92.02;101105.34;6094180;23;20018;-52
2022/11/01 06:55:39;;;;;;;3.60;1.95;;;;;;;15.21;100.00;101106.06;6093934;23;20601;-47
2022/11/01 06:58:08;;;;;;;7.28;2.28;;;;;;;15.15;94.43;101118.19;6092904;23;20192;-53
2022/11/01 07:00:36;;;;;;;6.68;2.30;;;;;;;14.91;86.04;101125.31;6091597;23;20026;-52
2022/11/01 07:03:06;;;;;;;10.45;1.90;;;;;;;14.84;86.83;101118.50;6093575;23;20023;-53
2022/11/01 07:05:35;;;;;;;11.18;2.40;;;;;;;14.74;87.59;101127.66;6093681;23;20037;-49
2022/11/01 07:08:06;;;;;;;3.22;1.63;;;;;;;14.80;85.81;101133.94;6093597;23;20567;-53
2022/11/01 07:10:36;;;;;;;5.18;2.00;;;;;;;14.93;100.00;101130.50;6092971;23;20529;-51
2022/11/01 07:13:05;;;;;;;6.75;2.08;;;;;;;14.82;92.09;101135.28;6092316;23;20026;-50
2022/11/01 07:15:32;;;;;;;7.78;2.70;;;;;;;14.66;84.77;101137.34;6093553;23;20014;-51
2022/11/01 07:18:02;;;;;;;8.43;2.60;;;;;;;14.62;84.84;101155.50;6092159;23;20018;-52
2022/11/01 07:20:39;;;;;;;5.18;2.30;;;;;;;14.62;86.77;101152.75;6068677;23;20128;-51
2022/11/01 07:23:15;;;;;;;10.20;2.75;;;;;;;14.58;84.96;101159.09;6094021;23;20025;-49
2022/11/01 07:25:43;;;;;;;9.80;2.47;;;;;;;14.55;83.01;101163.22;6092536;23;20034;-51
2022/11/01 07:28:10;;;;;;;7.57;2.58;;;;;;;14.49;83.13;101172.56;6092423;23;20023;-50
2022/11/01 07:30:38;;;;;;;10.60;3.03;;;;;;;14.67;97.23;101173.81;6093777;23;20448;-50
2022/11/01 07:33:06;;;;;;;12.18;3.42;;;;;;;14.76;93.26;101183.06;6093866;23;20026;-53
2022/11/01 07:35:34;;;;;;;9.63;2.90;;;;;;;14.69;84.47;101179.81;6094651;23;20034;-54
2022/11/01 07:38:01;;;;;;;12.10;3.60;;;;;;;14.81;91.29;101179.44;6094039;23;20029;-51
2022/11/01 07:40:38;;;;;;;;;;;;;;;14.72;84.22;101187.50;6095976;23;20031;-52
2022/11/01 07:43:06;;;;;;;11.80;3.20;;;;;;;14.71;89.33;101191.34;6096126;23;19937;-50
2022/11/01 07:45:34;;;;;;;11.85;3.53;;;;;;;14.87;90.18;101192.03;6096562;23;20030;-52
2022/11/01 07:48:04;;;;;;;17.20;4.78;;;;;;;15.07;93.17;101191.03;6096266;23;20391;-53
2022/11/01 07:50:33;;;;;;;15.00;4.55;;;;;;;15.09;98.74;101197.03;6096380;23;20050;-49
2022/11/01 07:53:02;;;;;;;16.10;4.15;;;;;;;15.01;95.86;101194.91;6097718;23;20077;-51
2022/11/01 07:55:30;;;;;;;13.57;3.58;;;;;;;15.00;90.54;101210.56;6097867;23;20041;-50
2022/11/01 07:57:57;;;;;;;17.48;4.80;;;;;;;15.02;97.93;101211.09;6097945;23;20019;-51
2022/11/01 08:00:26;;;;;;;16.60;3.90;;;;;;;14.88;88.68;101213.69;6097331;23;20466;-54
2022/11/01 08:03:01;;;;;;;17.30;5.00;;;;;;;15.28;100.00;101211.66;6096088;23;20030;-52
2022/11/01 08:05:30;;;;;;;15.35;3.40;;;;;;;15.04;89.66;101222.59;6097754;23;20360;-50
2022/11/01 08:07:58;;;;;;;12.20;3.10;;;;;;;15.06;100.00;101225.06;6096078;23;20022;-50
2022/11/01 08:10:27;;;;;;;14.65;3.80;;;;;;;15.15;97.70;101223.31;6096416;23;20018;-50
2022/11/01 08:13:18;;;;;;;14.43;3.75;;;;;;;15.08;95.30;101223.69;6096349;23;20026;-52
2022/11/01 08:15:47;;;;;;;10.88;3.35;;;;;;;15.16;89.48;101240.63;6096465;23;20030;-51
2022/11/01 08:18:16;;;;;;;14.05;3.38;;;;;;;15.19;91.66;101229.88;6097524;23;20046;-51
2022/11/01 08:20:43;;;;;;;12.27;3.20;;;;;;;15.06;90.12;101233.31;6072792;23;20022;-53
2022/11/01 08:23:11;;;;;;;17.35;4.07;;;;;;;15.28;93.02;101232.81;6096037;23;20070;-49
2022/11/01 08:25:39;;;;;;;11.20;3.65;;;;;;;15.23;99.54;101252.91;6097477;23;20095;-51
2022/11/01 08:28:12;;;;;;;13.40;3.33;;;;;;;15.12;91.50;101245.84;6097207;23;20026;-49
2022/11/01 08:30:41;;;;;;;12.05;3.55;;;;;;;14.96;90.26;101250.69;6097054;23;20082;-50
2022/11/01 08:33:09;;;;;;;14.32;3.63;;;;;;;14.94;91.14;101254.81;6097025;23;20448;-51
2022/11/01 08:35:37;;;;;;;12.63;3.78;;;;;;;15.01;93.49;101255.28;6097463;23;20018;-51
2022/11/01 08:38:05;;;;;;;11.30;3.40;;;;;;;15.10;94.85;101257.16;6096080;23;20388;-52
2022/11/01 08:40:33;;;;;;;12.25;3.20;;;;;;;15.07;93.80;101254.97;6097043;23;20019;-55
2022/11/01 08:43:01;;;;;;;12.13;2.95;;;;;;;15.30;100.00;101264.38;6097322;23;20087;-52
2022/11/01 08:45:29;;;;;;;9.60;3.30;;;;;;;15.45;98.73;101270.81;6096291;23;20073;-51
2022/11/01 08:48:02;;;;;;;9.90;3.25;;;;;;;15.46;98.17;101265.03;6097032;23;20014;-53
2022/11/01 08:50:29;;;;;;;12.80;3.28;;;;;;;15.37;94.79;101257.69;6073240;23;20029;-58
2022/11/01 08:52:57;;;;;;;13.35;3.80;;;;;;;15.46;93.54;101267.75;6095548;23;20018;-56
2022/11/01 08:55:25;;;;;;;12.45;3.25;;;;;;;15.28;87.17;101265.78;6097199;23;20459;-53
2022/11/01 08:57:53;;;;;;;9.50;2.95;;;;;;;15.26;99.98;101268.78;6072469;23;20019;-52
2022/11/01 09:00:20;;;;;;;11.73;3.28;;;;;;;15.43;95.71;101273.84;6097018;23;20077;-52
2022/11/01 09:02:48;;;;;;;10.80;3.25;;;;;;;15.40;93.43;101279.94;6097186;23;20076;-53
2022/11/01 09:05:16;;;;;;;11.35;3.47;;;;;;;15.28;87.31;101277.56;6095562;23;20454;-52
2022/11/01 09:07:44;;;;;;;12.18;3.50;;;;;;;15.12;91.79;101284.28;6095939;23;20026;-50
2022/11/01 09:10:11;;;;;;;14.23;3.70;;;;;;;15.06;88.36;101279.97;6096076;23;20022;-49
2022/11/01 09:12:39;;;;;;;12.57;3.17;;;;;;;15.05;89.12;101283.78;6097067;23;20018;-51
2022/11/01 09:15:11;;;;;;;14.70;3.28;;;;;;;15.02;94.72;101289.88;6097145;23;20025;-50
2022/11/01 09:17:39;;;;;;;8.60;2.50;;;;;;;15.19;98.62;101279.28;6096891;23;20069;-52
2022/11/01 09:20:08;;;;;;;12.30;3.38;;;;;;;15.19;88.64;101283.97;6097146;23;20093;-51
2022/11/01 09:22:36;;;;;;;12.73;3.70;;;;;;;15.18;91.45;101282.34;6097090;23;20049;-49
2022/11/01 09:25:05;;;;;;;12.02;3.50;;;;;;;15.12;89.30;101293.34;6095492;23;20074;-53
2022/11/01 09:27:32;;;;;;;9.85;3.08;;;;;;;15.27;97.14;101292.41;6097036;23;20077;-51
2022/11/01 09:30:00;;;;;;;9.73;3.28;;;;;;;15.64;94.33;101284.63;6096890;23;20081;-54
2022/11/01 09:32:28;;;;;;;11.05;2.85;;;;;;;15.74;97.21;101285.38;6096737;23;20023;-52
2022/11/01 09:34:55;;;;;;;10.20;3.42;;;;;;;15.68;92.48;101299.41;6095493;23;20074;-48
2022/11/01 09:37:23;;;;;;;10.57;3.50;;;;;;;15.77;95.18;101309.50;6097353;23;20029;-50
2022/11/01 09:39:51;;;;;;;12.82;3.25;;;;;;;15.68;91.54;101308.50;6097099;23;20392;-51
2022/11/01 09:42:31;;;;;;;8.65;2.88;;;;;;;15.67;91.26;101311.53;6096982;23;20083;-50
2022/11/01 09:45:03;;;;;;;8.38;2.80;;;;;;;15.36;87.74;101316.47;6097019;23;20015;-51
2022/11/01 09:47:32;;;;;;;12.40;3.20;;;;;;;15.34;87.24;101320.34;6095604;23;20069;-54
2022/11/01 09:50:16;;;;;;;12.60;3.13;;;;;;;15.48;93.70;101330.66;6096884;23;20026;-52
2022/11/01 09:52:44;;;;;;;8.55;2.65;;;;;;;15.58;88.50;101329.72;6071548;23;20018;-52
2022/11/01 09:55:16;;;;;;;11.70;3.42;;;;;;;15.41;86.49;101339.22;6096010;23;20325;-52
2022/11/01 09:57:51;;;;;;;10.50;3.03;;;;;;;15.62;94.60;101348.09;6095729;23;20018;-49
2022/11/01 10:00:20;;;;;;;11.65;3.35;;;;;;;15.82;88.31;101358.09;6070972;23;20023;-57
2022/11/01 10:02:56;;;;;;;6.45;2.17;;;;;;;15.69;86.28;101364.25;6097485;23;20031;-52
2022/11/01 10:05:27;;;;;;;;;;;;;;;15.44;84.00;101368.88;6095885;23;20363;-51
2022/11/01 10:08:06;;;;;;;9.80;2.92;;;;;;;15.31;92.29;101361.28;6097258;23;19917;-53
2022/11/01 10:10:58;;;;;;;7.82;2.95;;;;;;;15.53;90.87;101367.13;6097771;23;20029;-49
2022/11/01 10:13:53;;;;;;;6.88;2.47;;;;;;;15.71;93.58;101375.81;6095514;23;20025;-52
2022/11/01 10:16:22;;;;;;;16.25;3.30;;;;;;;15.61;83.55;101373.94;6096370;23;20018;-52
2022/11/01 10:19:14;;;;;;;11.43;3.22;;;;;;;15.55;93.34;101375.91;6071217;23;20074;-52
2022/11/01 10:21:47;;;;;;;7.68;2.40;;;;;;;15.57;90.23;101377.56;6086473;23;20022;-53
2022/11/01 10:24:31;;;;;;;8.00;2.33;;;;;;;15.84;92.97;101388.84;6094875;23;20485;-50
2022/11/01 10:27:17;;;;;;;8.95;3.28;;;;;;;15.58;79.31;101384.66;6071736;23;20022;-52
2022/11/01 10:30:06;;;;;;;9.57;3.17;;;;;;;15.57;90.82;101383.03;6095461;23;20029;-50
2022/11/01 10:32:46;;;;;;;9.40;2.55;;;;;;;15.55;86.90;101380.56;6096810;23;20026;-52
2022/11/01 10:35:34;;;;;;;8.38;2.60;;;;;;;15.58;92.33;101380.00;6097073;23;20026;-50
2022/11/01 10:38:22;;;;;;;8.80;2.60;;;;;;;15.61;94.10;101376.69;6096576;23;20105;-52
2022/11/01 10:41:43;;;;;;;18.27;3.47;;;;;;;15.57;87.38;101378.38;6096409;23;20101;-53
2022/11/01 10:44:41;;;;;;;7.40;2.45;;;;;;;15.60;95.85;101386.03;6090410;23;20026;-51
2022/11/01 10:47:15;;;;;;;10.15;2.92;;;;;;;15.62;87.59;101386.56;6094372;23;20050;-51
2022/11/01 10:49:49;;;;;;;16.27;3.55;;;;;;;15.49;80.42;101381.72;6095378;23;20316;-50
2022/11/01 10:52:45;;;;;;;12.45;3.50;;;;;;;15.34;81.70;101378.00;6095652;23;20077;-52
2022/11/01 10:55:27;;;;;;;9.82;2.90;;;;;;;15.53;95.09;101377.28;6096082;23;20510;-54
2022/11/01 10:58:16;;;;;;;10.98;2.92;;;;;;;15.53;85.52;101383.59;6098707;23;20057;-52
2022/11/01 11:00:44;;;;;;;10.02;3.38;;;;;;;15.64;92.74;101375.28;6098050;23;20459;-52
2022/11/01 11:03:23;;;;;;;7.60;2.72;;;;;;;15.71;92.38;101375.81;6098694;23;20032;-49
2022/11/01 11:05:52;;;;;;;10.48;2.88;;;;;;;15.77;87.89;101378.19;6097002;23;20018;-52
2022/11/01 11:08:22;;;;;;;9.32;3.10;;;;;;;15.80;88.01;101387.78;6097232;23;20079;-51
2022/11/01 11:10:50;;;;;;;7.10;2.70;;;;;;;15.82;91.15;101384.75;6097127;23;20029;-53
2022/11/01 11:13:22;;;;;;;6.65;2.17;;;;;;;15.74;89.26;101384.28;6096668;23;20018;-53
2022/11/01 11:15:59;;;;;;;10.70;2.80;;;;;;;16.04;90.14;101376.81;6096809;23;20070;-54
2022/11/01 11:18:29;;;;;;;17.05;3.90;;;;;;;15.85;78.41;101374.03;6096918;23;20022;-50
2022/11/01 11:20:59;;;;;;;9.27;2.80;;;;;;;15.92;88.23;101388.25;6098437;23;20022;-50
2022/11/01 11:23:31;;;;;;;16.02;3.30;;;;;;;15.71;81.65;101384.88;6098187;23;20455;-52
2022/11/01 11:26:08;;;;;;;7.72;2.78;;;;;;;15.69;92.53;101387.03;6097032;23;20023;-50
2022/11/01 11:28:43;;;;;;;8.07;2.63;;;;;;;15.71;90.24;101382.13;6096689;23;20077;-48
2022/11/01 11:31:30;;;;;;;8.77;2.72;;;;;;;15.92;88.19;101376.41;6095929;23;20037;-51
2022/11/01 11:34:15;;;;;;;9.98;2.83;;;;;;;15.83;89.41;101386.41;6097018;23;20022;-52
2022/11/01 11:36:45;;;;;;;8.20;2.90;;;;;;;15.89;89.24;101375.06;6096791;23;20019;-52
2022/11/01 11:39:44;;;;;;;8.35;2.70;;;;;;;16.09;92.19;101389.69;6096519;23;20026;-51
2022/11/01 11:42:17;;;;;;;12.80;3.00;;;;;;;16.14;88.33;101384.16;6074766;23;20028;-59
2022/11/01 11:44:50;;;;;;;10.73;2.97;;;;;;;16.01;79.68;101385.66;6096544;23;20031;-49
2022/11/01 11:47:27;;;;;;;11.93;3.08;;;;;;;15.98;83.04;101380.75;6098316;23;20014;-53
2022/11/01 11:49:57;;;;;;;7.22;2.45;;;;;;;15.87;89.16;101376.47;6097650;23;20030;-53